sensor_id;sensor_type;location;lat;lon;timestamp;temperature;humidity
26212;DHT22;13951;49.516;6.094;2023-08-12T00:01:51;22.10;99.90
26212;DHT22;13951;49.516;6.094;2023-08-12T00:04:24;22.10;99.90
26212;DHT22;13951;49.516;6.094;2023-08-12T00:06:57;22.10;99.90
26212;DHT22;13951;49.516;6.094;2023-08-12T00:09:31;22.10;99.90
26212;DHT22;13951;49.516;6.094;2023-08-12T00:12:04;22.10;99.90
26212;DHT22;13951;49.516;6.094;2023-08-12T00:14:37;22.10;99.90
26212;DHT22;13951;49.516;6.094;2023-08-12T00:17:10;22.10;99.90
26212;DHT22;13951;49.516;6.094;2023-08-12T00:19:44;22.00;99.90
26212;DHT22;13951;49.516;6.094;2023-08-12T00:22:18;22.00;99.90
26212;DHT22;13951;49.516;6.094;2023-08-12T00:24:52;22.00;99.90
26212;DHT22;13951;49.516;6.094;2023-08-12T00:27:25;22.00;99.90
26212;DHT22;13951;49.516;6.094;2023-08-12T00:29:59;22.10;99.90
26212;DHT22;13951;49.516;6.094;2023-08-12T00:32:33;22.00;99.90
26212;DHT22;13951;49.516;6.094;2023-08-12T00:35:07;22.00;99.90
26212;DHT22;13951;49.516;6.094;2023-08-12T00:37:40;22.00;99.90
26212;DHT22;13951;49.516;6.094;2023-08-12T00:40:14;22.00;99.90
26212;DHT22;13951;49.516;6.094;2023-08-12T00:42:48;22.10;99.90
26212;DHT22;13951;49.516;6.094;2023-08-12T00:45:21;22.10;99.90
26212;DHT22;13951;49.516;6.094;2023-08-12T00:47:55;22.10;99.90
26212;DHT22;13951;49.516;6.094;2023-08-12T00:50:29;22.10;99.90
26212;DHT22;13951;49.516;6.094;2023-08-12T00:53:02;22.00;99.90
26212;DHT22;13951;49.516;6.094;2023-08-12T00:55:37;22.00;99.90
26212;DHT22;13951;49.516;6.094;2023-08-12T00:58:11;22.00;99.90
26212;DHT22;13951;49.516;6.094;2023-08-12T01:00:46;21.90;99.90
26212;DHT22;13951;49.516;6.094;2023-08-12T01:03:20;21.90;99.90
26212;DHT22;13951;49.516;6.094;2023-08-12T01:05:53;21.90;99.90
26212;DHT22;13951;49.516;6.094;2023-08-12T01:08:31;21.90;99.90
26212;DHT22;13951;49.516;6.094;2023-08-12T01:11:16;21.90;99.90
26212;DHT22;13951;49.516;6.094;2023-08-12T01:14:00;21.80;99.90
26212;DHT22;13951;49.516;6.094;2023-08-12T01:16:39;21.80;99.90
26212;DHT22;13951;49.516;6.094;2023-08-12T01:19:43;21.80;99.90
26212;DHT22;13951;49.516;6.094;2023-08-12T01:22:16;21.80;99.90
26212;DHT22;13951;49.516;6.094;2023-08-12T01:24:52;21.70;99.90
26212;DHT22;13951;49.516;6.094;2023-08-12T01:27:25;21.60;99.90
26212;DHT22;13951;49.516;6.094;2023-08-12T01:29:58;21.60;99.90
26212;DHT22;13951;49.516;6.094;2023-08-12T01:32:41;21.60;99.90
26212;DHT22;13951;49.516;6.094;2023-08-12T01:35:30;21.60;99.90
26212;DHT22;13951;49.516;6.094;2023-08-12T01:38:06;21.50;99.90
26212;DHT22;13951;49.516;6.094;2023-08-12T01:40:41;21.50;99.90
26212;DHT22;13951;49.516;6.094;2023-08-12T01:43:16;21.50;99.90
26212;DHT22;13951;49.516;6.094;2023-08-12T01:45:49;21.50;99.90
26212;DHT22;13951;49.516;6.094;2023-08-12T01:48:23;21.50;99.90
26212;DHT22;13951;49.516;6.094;2023-08-12T01:50:56;21.40;99.90
26212;DHT22;13951;49.516;6.094;2023-08-12T01:53:29;21.40;99.90
26212;DHT22;13951;49.516;6.094;2023-08-12T01:56:03;21.40;99.90
26212;DHT22;13951;49.516;6.094;2023-08-12T01:58:36;21.40;99.90
26212;DHT22;13951;49.516;6.094;2023-08-12T02:01:10;21.30;99.90
26212;DHT22;13951;49.516;6.094;2023-08-12T02:03:43;21.30;99.90
26212;DHT22;13951;49.516;6.094;2023-08-12T02:06:17;21.20;99.90
26212;DHT22;13951;49.516;6.094;2023-08-12T02:08:50;21.20;99.90
26212;DHT22;13951;49.516;6.094;2023-08-12T02:11:23;21.20;99.90
26212;DHT22;13951;49.516;6.094;2023-08-12T02:13:58;21.20;99.90
26212;DHT22;13951;49.516;6.094;2023-08-12T02:16:31;21.30;99.90
26212;DHT22;13951;49.516;6.094;2023-08-12T02:19:04;21.20;99.90
26212;DHT22;13951;49.516;6.094;2023-08-12T02:21:37;21.20;99.90
26212;DHT22;13951;49.516;6.094;2023-08-12T02:24:11;21.20;99.90
26212;DHT22;13951;49.516;6.094;2023-08-12T02:26:44;21.20;99.90
26212;DHT22;13951;49.516;6.094;2023-08-12T02:29:19;21.20;99.90
26212;DHT22;13951;49.516;6.094;2023-08-12T02:31:52;21.10;99.90
26212;DHT22;13951;49.516;6.094;2023-08-12T02:34:25;21.10;99.90
26212;DHT22;13951;49.516;6.094;2023-08-12T02:36:58;21.00;99.90
26212;DHT22;13951;49.516;6.094;2023-08-12T02:39:31;21.00;99.90
26212;DHT22;13951;49.516;6.094;2023-08-12T02:42:05;21.00;99.90
26212;DHT22;13951;49.516;6.094;2023-08-12T02:44:38;20.90;99.90
26212;DHT22;13951;49.516;6.094;2023-08-12T02:47:11;20.90;99.90
26212;DHT22;13951;49.516;6.094;2023-08-12T02:49:45;20.70;99.90
26212;DHT22;13951;49.516;6.094;2023-08-12T02:52:18;20.70;99.90
26212;DHT22;13951;49.516;6.094;2023-08-12T02:54:51;20.70;99.90
26212;DHT22;13951;49.516;6.094;2023-08-12T02:57:25;20.60;99.90
26212;DHT22;13951;49.516;6.094;2023-08-12T02:59:58;20.60;99.90
26212;DHT22;13951;49.516;6.094;2023-08-12T03:02:32;20.60;99.90
26212;DHT22;13951;49.516;6.094;2023-08-12T03:05:05;20.60;99.90
26212;DHT22;13951;49.516;6.094;2023-08-12T03:07:39;20.50;99.90
26212;DHT22;13951;49.516;6.094;2023-08-12T03:10:13;20.50;99.90
26212;DHT22;13951;49.516;6.094;2023-08-12T03:12:46;20.50;99.90
26212;DHT22;13951;49.516;6.094;2023-08-12T03:15:19;20.40;99.90
26212;DHT22;13951;49.516;6.094;2023-08-12T03:17:53;20.40;99.90
26212;DHT22;13951;49.516;6.094;2023-08-12T03:20:27;20.30;99.90
26212;DHT22;13951;49.516;6.094;2023-08-12T03:23:01;20.30;99.90
26212;DHT22;13951;49.516;6.094;2023-08-12T03:25:34;20.30;99.90
26212;DHT22;13951;49.516;6.094;2023-08-12T03:28:08;20.30;99.90
26212;DHT22;13951;49.516;6.094;2023-08-12T03:30:42;20.20;99.90
26212;DHT22;13951;49.516;6.094;2023-08-12T03:33:16;20.20;99.90
26212;DHT22;13951;49.516;6.094;2023-08-12T03:35:49;20.20;99.90
26212;DHT22;13951;49.516;6.094;2023-08-12T03:38:23;20.20;99.90
26212;DHT22;13951;49.516;6.094;2023-08-12T03:40:56;20.20;99.90
26212;DHT22;13951;49.516;6.094;2023-08-12T03:43:31;20.20;99.90
26212;DHT22;13951;49.516;6.094;2023-08-12T03:46:04;20.20;99.90
26212;DHT22;13951;49.516;6.094;2023-08-12T03:48:37;20.20;99.90
26212;DHT22;13951;49.516;6.094;2023-08-12T03:51:10;20.20;99.90
26212;DHT22;13951;49.516;6.094;2023-08-12T03:53:43;20.20;99.90
26212;DHT22;13951;49.516;6.094;2023-08-12T03:56:17;20.20;99.90
26212;DHT22;13951;49.516;6.094;2023-08-12T03:58:51;20.10;99.90
26212;DHT22;13951;49.516;6.094;2023-08-12T04:01:24;20.00;99.90
26212;DHT22;13951;49.516;6.094;2023-08-12T04:03:57;19.90;99.90
26212;DHT22;13951;49.516;6.094;2023-08-12T04:06:31;19.90;99.90
26212;DHT22;13951;49.516;6.094;2023-08-12T04:09:04;20.00;99.90
26212;DHT22;13951;49.516;6.094;2023-08-12T04:11:38;20.00;99.90
26212;DHT22;13951;49.516;6.094;2023-08-12T04:14:12;20.00;99.90
26212;DHT22;13951;49.516;6.094;2023-08-12T04:16:48;20.00;99.90
26212;DHT22;13951;49.516;6.094;2023-08-12T04:19:22;20.10;99.90
26212;DHT22;13951;49.516;6.094;2023-08-12T04:21:55;20.10;99.90
26212;DHT22;13951;49.516;6.094;2023-08-12T04:24:29;20.10;99.90
26212;DHT22;13951;49.516;6.094;2023-08-12T04:27:03;20.10;99.90
26212;DHT22;13951;49.516;6.094;2023-08-12T04:29:36;20.20;99.90
26212;DHT22;13951;49.516;6.094;2023-08-12T04:32:10;20.20;99.90
26212;DHT22;13951;49.516;6.094;2023-08-12T04:34:45;20.20;99.90
26212;DHT22;13951;49.516;6.094;2023-08-12T04:37:21;20.10;99.90
26212;DHT22;13951;49.516;6.094;2023-08-12T04:39:55;20.10;99.90
26212;DHT22;13951;49.516;6.094;2023-08-12T04:42:45;20.10;99.90
26212;DHT22;13951;49.516;6.094;2023-08-12T04:45:18;20.10;99.90
26212;DHT22;13951;49.516;6.094;2023-08-12T04:47:52;20.10;99.90
26212;DHT22;13951;49.516;6.094;2023-08-12T04:50:25;20.10;99.90
26212;DHT22;13951;49.516;6.094;2023-08-12T04:52:59;20.10;99.90
26212;DHT22;13951;49.516;6.094;2023-08-12T04:55:36;20.10;99.90
26212;DHT22;13951;49.516;6.094;2023-08-12T04:58:10;20.20;99.90
26212;DHT22;13951;49.516;6.094;2023-08-12T05:00:43;20.20;99.90
26212;DHT22;13951;49.516;6.094;2023-08-12T05:03:16;20.20;99.90
26212;DHT22;13951;49.516;6.094;2023-08-12T05:05:51;20.20;99.90
26212;DHT22;13951;49.516;6.094;2023-08-12T05:08:27;20.20;99.90
26212;DHT22;13951;49.516;6.094;2023-08-12T05:11:00;20.20;99.90
26212;DHT22;13951;49.516;6.094;2023-08-12T05:13:35;20.20;99.90
26212;DHT22;13951;49.516;6.094;2023-08-12T05:16:08;20.20;99.90
26212;DHT22;13951;49.516;6.094;2023-08-12T05:18:42;20.30;99.90
26212;DHT22;13951;49.516;6.094;2023-08-12T05:21:17;20.30;99.90
26212;DHT22;13951;49.516;6.094;2023-08-12T05:23:51;20.40;99.90
26212;DHT22;13951;49.516;6.094;2023-08-12T05:26:24;20.40;99.90
26212;DHT22;13951;49.516;6.094;2023-08-12T05:28:59;20.50;99.90
26212;DHT22;13951;49.516;6.094;2023-08-12T05:31:32;20.50;99.90
26212;DHT22;13951;49.516;6.094;2023-08-12T05:34:05;20.50;99.90
26212;DHT22;13951;49.516;6.094;2023-08-12T05:36:39;20.60;99.90
26212;DHT22;13951;49.516;6.094;2023-08-12T05:39:12;20.60;99.90
26212;DHT22;13951;49.516;6.094;2023-08-12T05:41:45;20.70;99.90
26212;DHT22;13951;49.516;6.094;2023-08-12T05:44:19;20.80;99.90
26212;DHT22;13951;49.516;6.094;2023-08-12T05:46:52;20.90;99.90
26212;DHT22;13951;49.516;6.094;2023-08-12T05:49:25;21.00;99.90
26212;DHT22;13951;49.516;6.094;2023-08-12T05:51:58;21.10;99.90
26212;DHT22;13951;49.516;6.094;2023-08-12T05:54:31;21.10;99.90
26212;DHT22;13951;49.516;6.094;2023-08-12T05:57:05;21.10;99.90
26212;DHT22;13951;49.516;6.094;2023-08-12T05:59:38;21.20;99.90
26212;DHT22;13951;49.516;6.094;2023-08-12T06:02:11;21.20;99.90
26212;DHT22;13951;49.516;6.094;2023-08-12T06:04:44;21.20;99.90
26212;DHT22;13951;49.516;6.094;2023-08-12T06:07:18;21.30;99.90
26212;DHT22;13951;49.516;6.094;2023-08-12T06:09:51;21.30;99.90
26212;DHT22;13951;49.516;6.094;2023-08-12T06:12:24;21.40;99.90
26212;DHT22;13951;49.516;6.094;2023-08-12T06:14:58;21.40;99.90
26212;DHT22;13951;49.516;6.094;2023-08-12T06:17:31;21.50;99.90
26212;DHT22;13951;49.516;6.094;2023-08-12T06:20:05;21.50;99.90
26212;DHT22;13951;49.516;6.094;2023-08-12T06:22:39;21.60;99.90
26212;DHT22;13951;49.516;6.094;2023-08-12T06:25:12;21.60;99.90
26212;DHT22;13951;49.516;6.094;2023-08-12T06:27:46;21.60;99.90
26212;DHT22;13951;49.516;6.094;2023-08-12T06:30:20;21.50;99.90
26212;DHT22;13951;49.516;6.094;2023-08-12T06:32:53;21.50;99.90
26212;DHT22;13951;49.516;6.094;2023-08-12T06:35:28;21.60;99.90
26212;DHT22;13951;49.516;6.094;2023-08-12T06:38:01;21.60;99.90
26212;DHT22;13951;49.516;6.094;2023-08-12T06:40:37;21.60;99.90
26212;DHT22;13951;49.516;6.094;2023-08-12T06:43:10;21.70;99.90
26212;DHT22;13951;49.516;6.094;2023-08-12T06:45:43;21.70;99.90
26212;DHT22;13951;49.516;6.094;2023-08-12T06:48:17;21.80;99.90
26212;DHT22;13951;49.516;6.094;2023-08-12T06:50:54;21.80;99.90
26212;DHT22;13951;49.516;6.094;2023-08-12T06:53:28;22.00;99.90
26212;DHT22;13951;49.516;6.094;2023-08-12T06:56:03;22.10;99.90
26212;DHT22;13951;49.516;6.094;2023-08-12T06:58:36;22.30;99.90
26212;DHT22;13951;49.516;6.094;2023-08-12T07:01:09;22.30;99.90
26212;DHT22;13951;49.516;6.094;2023-08-12T07:03:46;22.40;99.90
26212;DHT22;13951;49.516;6.094;2023-08-12T07:06:19;22.40;99.90
26212;DHT22;13951;49.516;6.094;2023-08-12T07:08:55;22.40;99.90
26212;DHT22;13951;49.516;6.094;2023-08-12T07:11:29;22.40;99.90
26212;DHT22;13951;49.516;6.094;2023-08-12T07:14:02;22.40;99.90
26212;DHT22;13951;49.516;6.094;2023-08-12T07:16:35;22.30;99.90
26212;DHT22;13951;49.516;6.094;2023-08-12T07:19:08;22.30;99.90
26212;DHT22;13951;49.516;6.094;2023-08-12T07:21:41;22.30;99.90
26212;DHT22;13951;49.516;6.094;2023-08-12T07:24:15;22.30;99.90
26212;DHT22;13951;49.516;6.094;2023-08-12T07:26:48;22.30;99.90
26212;DHT22;13951;49.516;6.094;2023-08-12T07:29:21;22.30;99.90
26212;DHT22;13951;49.516;6.094;2023-08-12T07:31:54;22.40;99.90
26212;DHT22;13951;49.516;6.094;2023-08-12T07:34:28;22.50;99.90
26212;DHT22;13951;49.516;6.094;2023-08-12T07:37:03;22.50;99.90
26212;DHT22;13951;49.516;6.094;2023-08-12T07:39:36;22.50;99.90
26212;DHT22;13951;49.516;6.094;2023-08-12T07:42:09;22.50;99.90
26212;DHT22;13951;49.516;6.094;2023-08-12T07:44:43;22.50;99.90
26212;DHT22;13951;49.516;6.094;2023-08-12T07:47:16;22.40;99.90
26212;DHT22;13951;49.516;6.094;2023-08-12T07:49:55;22.40;99.90
26212;DHT22;13951;49.516;6.094;2023-08-12T07:52:28;22.40;99.90
26212;DHT22;13951;49.516;6.094;2023-08-12T07:55:02;22.40;99.90
26212;DHT22;13951;49.516;6.094;2023-08-12T07:57:35;22.30;99.90
26212;DHT22;13951;49.516;6.094;2023-08-12T08:00:08;22.40;99.90
26212;DHT22;13951;49.516;6.094;2023-08-12T08:02:42;22.50;99.90
26212;DHT22;13951;49.516;6.094;2023-08-12T08:05:16;22.50;99.90
26212;DHT22;13951;49.516;6.094;2023-08-12T08:07:49;22.50;99.90
26212;DHT22;13951;49.516;6.094;2023-08-12T08:10:22;22.50;99.90
26212;DHT22;13951;49.516;6.094;2023-08-12T08:12:56;22.60;99.90
26212;DHT22;13951;49.516;6.094;2023-08-12T08:15:29;22.60;99.90
26212;DHT22;13951;49.516;6.094;2023-08-12T08:18:03;22.70;99.90
26212;DHT22;13951;49.516;6.094;2023-08-12T08:20:42;22.80;99.90
26212;DHT22;13951;49.516;6.094;2023-08-12T08:23:18;22.90;99.90
26212;DHT22;13951;49.516;6.094;2023-08-12T08:25:51;23.00;99.90
26212;DHT22;13951;49.516;6.094;2023-08-12T08:28:24;23.20;99.90
26212;DHT22;13951;49.516;6.094;2023-08-12T08:30:57;23.30;99.90
26212;DHT22;13951;49.516;6.094;2023-08-12T08:33:31;23.40;99.90
26212;DHT22;13951;49.516;6.094;2023-08-12T08:36:04;23.50;99.90
26212;DHT22;13951;49.516;6.094;2023-08-12T08:38:38;23.60;99.90
26212;DHT22;13951;49.516;6.094;2023-08-12T08:41:11;23.60;99.90
26212;DHT22;13951;49.516;6.094;2023-08-12T08:43:46;23.60;99.90
26212;DHT22;13951;49.516;6.094;2023-08-12T08:46:20;23.50;99.90
26212;DHT22;13951;49.516;6.094;2023-08-12T08:48:54;23.40;99.90
26212;DHT22;13951;49.516;6.094;2023-08-12T08:51:31;23.30;99.90
26212;DHT22;13951;49.516;6.094;2023-08-12T08:54:07;23.30;99.90
26212;DHT22;13951;49.516;6.094;2023-08-12T08:56:41;23.20;99.90
26212;DHT22;13951;49.516;6.094;2023-08-12T08:59:26;23.10;99.90
26212;DHT22;13951;49.516;6.094;2023-08-12T09:01:59;22.90;99.90
26212;DHT22;13951;49.516;6.094;2023-08-12T09:04:33;22.90;99.90
26212;DHT22;13951;49.516;6.094;2023-08-12T09:07:07;22.70;99.90
26212;DHT22;13951;49.516;6.094;2023-08-12T09:09:46;22.70;99.90
26212;DHT22;13951;49.516;6.094;2023-08-12T09:12:21;22.70;99.90
26212;DHT22;13951;49.516;6.094;2023-08-12T09:14:55;22.70;99.90
26212;DHT22;13951;49.516;6.094;2023-08-12T09:17:28;22.70;99.90
26212;DHT22;13951;49.516;6.094;2023-08-12T09:20:02;22.60;99.90
26212;DHT22;13951;49.516;6.094;2023-08-12T09:22:40;22.50;99.90
26212;DHT22;13951;49.516;6.094;2023-08-12T09:25:14;22.40;99.90
26212;DHT22;13951;49.516;6.094;2023-08-12T09:27:48;22.40;99.90
26212;DHT22;13951;49.516;6.094;2023-08-12T09:30:22;22.40;99.90
26212;DHT22;13951;49.516;6.094;2023-08-12T09:33:02;22.30;99.90
26212;DHT22;13951;49.516;6.094;2023-08-12T09:35:41;22.30;99.90
26212;DHT22;13951;49.516;6.094;2023-08-12T09:38:14;22.20;99.90
26212;DHT22;13951;49.516;6.094;2023-08-12T09:40:48;22.10;99.90
26212;DHT22;13951;49.516;6.094;2023-08-12T09:43:24;22.00;99.90
26212;DHT22;13951;49.516;6.094;2023-08-12T09:45:58;22.00;99.90
26212;DHT22;13951;49.516;6.094;2023-08-12T09:48:32;21.80;99.90
26212;DHT22;13951;49.516;6.094;2023-08-12T09:51:05;21.70;99.90
26212;DHT22;13951;49.516;6.094;2023-08-12T09:53:42;21.80;99.90
26212;DHT22;13951;49.516;6.094;2023-08-12T09:56:18;21.80;99.90
26212;DHT22;13951;49.516;6.094;2023-08-12T09:58:52;21.80;99.90
26212;DHT22;13951;49.516;6.094;2023-08-12T10:01:27;21.80;99.90
26212;DHT22;13951;49.516;6.094;2023-08-12T10:04:01;21.80;99.90
26212;DHT22;13951;49.516;6.094;2023-08-12T10:06:34;21.90;99.90
26212;DHT22;13951;49.516;6.094;2023-08-12T10:09:08;22.00;99.90
26212;DHT22;13951;49.516;6.094;2023-08-12T10:11:42;22.10;99.90
26212;DHT22;13951;49.516;6.094;2023-08-12T10:14:19;22.20;99.90
26212;DHT22;13951;49.516;6.094;2023-08-12T10:16:53;22.20;99.90
26212;DHT22;13951;49.516;6.094;2023-08-12T10:19:37;22.20;99.90
26212;DHT22;13951;49.516;6.094;2023-08-12T10:22:16;22.20;99.90
26212;DHT22;13951;49.516;6.094;2023-08-12T10:24:49;22.20;99.90
26212;DHT22;13951;49.516;6.094;2023-08-12T10:27:23;22.30;99.90
26212;DHT22;13951;49.516;6.094;2023-08-12T10:29:58;22.40;99.90
26212;DHT22;13951;49.516;6.094;2023-08-12T10:32:31;22.50;99.90
26212;DHT22;13951;49.516;6.094;2023-08-12T10:35:06;22.60;99.90
26212;DHT22;13951;49.516;6.094;2023-08-12T10:37:39;22.60;99.90
26212;DHT22;13951;49.516;6.094;2023-08-12T10:40:22;22.60;99.90
26212;DHT22;13951;49.516;6.094;2023-08-12T10:42:56;22.90;99.90
26212;DHT22;13951;49.516;6.094;2023-08-12T10:45:49;23.10;99.90
26212;DHT22;13951;49.516;6.094;2023-08-12T10:48:24;23.40;99.90
26212;DHT22;13951;49.516;6.094;2023-08-12T10:50:59;23.60;99.90
26212;DHT22;13951;49.516;6.094;2023-08-12T10:53:32;23.80;99.90
26212;DHT22;13951;49.516;6.094;2023-08-12T10:56:11;24.10;99.90
26212;DHT22;13951;49.516;6.094;2023-08-12T10:58:46;24.30;99.90
26212;DHT22;13951;49.516;6.094;2023-08-12T11:01:20;24.30;99.90
26212;DHT22;13951;49.516;6.094;2023-08-12T11:03:53;24.40;99.90
26212;DHT22;13951;49.516;6.094;2023-08-12T11:06:27;24.50;99.90
26212;DHT22;13951;49.516;6.094;2023-08-12T11:09:01;24.70;99.90
26212;DHT22;13951;49.516;6.094;2023-08-12T11:11:39;24.80;99.90
26212;DHT22;13951;49.516;6.094;2023-08-12T11:16:48;25.20;99.90
26212;DHT22;13951;49.516;6.094;2023-08-12T11:19:23;25.40;99.90
26212;DHT22;13951;49.516;6.094;2023-08-12T11:21:56;25.60;99.90
26212;DHT22;13951;49.516;6.094;2023-08-12T11:24:30;25.90;99.90
26212;DHT22;13951;49.516;6.094;2023-08-12T11:27:09;26.20;99.90
26212;DHT22;13951;49.516;6.094;2023-08-12T11:29:42;26.20;99.90
26212;DHT22;13951;49.516;6.094;2023-08-12T11:32:15;26.10;99.90
26212;DHT22;13951;49.516;6.094;2023-08-12T11:34:49;26.10;99.90
26212;DHT22;13951;49.516;6.094;2023-08-12T11:37:22;26.00;99.90
26212;DHT22;13951;49.516;6.094;2023-08-12T11:39:55;25.70;99.90
26212;DHT22;13951;49.516;6.094;2023-08-12T11:42:28;25.50;99.90
26212;DHT22;13951;49.516;6.094;2023-08-12T11:45:03;25.30;99.90
26212;DHT22;13951;49.516;6.094;2023-08-12T11:47:38;25.10;99.90
26212;DHT22;13951;49.516;6.094;2023-08-12T11:50:12;25.00;99.90
26212;DHT22;13951;49.516;6.094;2023-08-12T11:52:46;24.70;99.90
26212;DHT22;13951;49.516;6.094;2023-08-12T11:55:20;24.70;99.90
26212;DHT22;13951;49.516;6.094;2023-08-12T11:57:53;24.50;99.90
26212;DHT22;13951;49.516;6.094;2023-08-12T12:00:26;24.40;99.90
26212;DHT22;13951;49.516;6.094;2023-08-12T12:03:03;24.20;99.90
26212;DHT22;13951;49.516;6.094;2023-08-12T12:05:36;24.00;99.90
26212;DHT22;13951;49.516;6.094;2023-08-12T12:08:10;24.00;99.90
26212;DHT22;13951;49.516;6.094;2023-08-12T12:10:43;23.90;99.90
26212;DHT22;13951;49.516;6.094;2023-08-12T12:13:17;24.00;99.90
26212;DHT22;13951;49.516;6.094;2023-08-12T12:15:50;24.00;99.90
26212;DHT22;13951;49.516;6.094;2023-08-12T12:18:25;24.10;99.90
26212;DHT22;13951;49.516;6.094;2023-08-12T12:21:01;24.10;99.90
26212;DHT22;13951;49.516;6.094;2023-08-12T12:23:37;24.10;99.90
26212;DHT22;13951;49.516;6.094;2023-08-12T12:26:10;24.10;99.90
26212;DHT22;13951;49.516;6.094;2023-08-12T12:28:43;24.10;99.90
26212;DHT22;13951;49.516;6.094;2023-08-12T12:31:17;24.20;99.90
26212;DHT22;13951;49.516;6.094;2023-08-12T12:33:50;24.10;99.90
26212;DHT22;13951;49.516;6.094;2023-08-12T12:36:23;24.10;99.90
26212;DHT22;13951;49.516;6.094;2023-08-12T12:38:56;24.20;99.90
26212;DHT22;13951;49.516;6.094;2023-08-12T12:41:30;24.20;99.90
26212;DHT22;13951;49.516;6.094;2023-08-12T12:44:04;24.20;99.90
26212;DHT22;13951;49.516;6.094;2023-08-12T12:46:37;24.20;99.90
26212;DHT22;13951;49.516;6.094;2023-08-12T12:49:11;24.20;99.90
26212;DHT22;13951;49.516;6.094;2023-08-12T12:51:44;24.20;99.90
26212;DHT22;13951;49.516;6.094;2023-08-12T12:54:17;24.20;99.90
26212;DHT22;13951;49.516;6.094;2023-08-12T12:56:50;24.20;99.90
26212;DHT22;13951;49.516;6.094;2023-08-12T12:59:24;24.20;99.90
26212;DHT22;13951;49.516;6.094;2023-08-12T13:01:57;24.20;99.90
26212;DHT22;13951;49.516;6.094;2023-08-12T13:04:30;24.20;99.90
26212;DHT22;13951;49.516;6.094;2023-08-12T13:07:04;24.30;99.90
26212;DHT22;13951;49.516;6.094;2023-08-12T13:09:37;24.20;99.90
26212;DHT22;13951;49.516;6.094;2023-08-12T13:12:12;24.10;99.90
26212;DHT22;13951;49.516;6.094;2023-08-12T13:14:46;24.20;99.90
26212;DHT22;13951;49.516;6.094;2023-08-12T13:17:20;24.10;99.90
26212;DHT22;13951;49.516;6.094;2023-08-12T13:19:53;24.10;99.90
26212;DHT22;13951;49.516;6.094;2023-08-12T13:22:26;24.20;99.90
26212;DHT22;13951;49.516;6.094;2023-08-12T13:24:59;24.20;99.90
26212;DHT22;13951;49.516;6.094;2023-08-12T13:27:32;24.10;99.90
26212;DHT22;13951;49.516;6.094;2023-08-12T13:30:06;24.00;99.90
26212;DHT22;13951;49.516;6.094;2023-08-12T13:32:39;23.90;99.90
26212;DHT22;13951;49.516;6.094;2023-08-12T13:35:13;23.80;99.90
26212;DHT22;13951;49.516;6.094;2023-08-12T13:37:46;23.70;99.90
26212;DHT22;13951;49.516;6.094;2023-08-12T13:40:19;23.70;99.90
26212;DHT22;13951;49.516;6.094;2023-08-12T13:42:53;23.60;99.90
26212;DHT22;13951;49.516;6.094;2023-08-12T13:45:26;23.60;99.90
26212;DHT22;13951;49.516;6.094;2023-08-12T13:47:59;23.60;99.90
26212;DHT22;13951;49.516;6.094;2023-08-12T13:50:32;23.60;99.90
26212;DHT22;13951;49.516;6.094;2023-08-12T13:53:05;23.50;99.90
26212;DHT22;13951;49.516;6.094;2023-08-12T13:55:38;23.40;99.90
26212;DHT22;13951;49.516;6.094;2023-08-12T13:58:12;23.30;99.90
26212;DHT22;13951;49.516;6.094;2023-08-12T14:00:45;23.30;99.90
26212;DHT22;13951;49.516;6.094;2023-08-12T14:03:19;23.30;99.90
26212;DHT22;13951;49.516;6.094;2023-08-12T14:05:52;23.30;99.90
26212;DHT22;13951;49.516;6.094;2023-08-12T14:08:26;23.30;99.90
26212;DHT22;13951;49.516;6.094;2023-08-12T14:10:59;23.40;99.90
26212;DHT22;13951;49.516;6.094;2023-08-12T14:13:32;23.40;99.90
26212;DHT22;13951;49.516;6.094;2023-08-12T14:16:05;23.30;99.90
26212;DHT22;13951;49.516;6.094;2023-08-12T14:18:39;23.30;99.90
26212;DHT22;13951;49.516;6.094;2023-08-12T14:21:12;23.30;99.90
26212;DHT22;13951;49.516;6.094;2023-08-12T14:23:45;23.40;99.90
26212;DHT22;13951;49.516;6.094;2023-08-12T14:26:18;23.30;99.90
26212;DHT22;13951;49.516;6.094;2023-08-12T14:28:51;23.30;99.90
26212;DHT22;13951;49.516;6.094;2023-08-12T14:31:24;23.30;99.90
26212;DHT22;13951;49.516;6.094;2023-08-12T14:33:58;23.30;99.90
26212;DHT22;13951;49.516;6.094;2023-08-12T14:36:31;23.30;99.90
26212;DHT22;13951;49.516;6.094;2023-08-12T14:39:05;23.30;99.90
26212;DHT22;13951;49.516;6.094;2023-08-12T14:41:38;23.30;99.90
26212;DHT22;13951;49.516;6.094;2023-08-12T14:44:11;23.30;99.90
26212;DHT22;13951;49.516;6.094;2023-08-12T14:46:45;23.20;99.90
26212;DHT22;13951;49.516;6.094;2023-08-12T14:49:19;23.30;99.90
26212;DHT22;13951;49.516;6.094;2023-08-12T14:51:54;23.40;99.90
26212;DHT22;13951;49.516;6.094;2023-08-12T14:54:27;23.60;99.90
26212;DHT22;13951;49.516;6.094;2023-08-12T14:57:01;23.70;99.90
26212;DHT22;13951;49.516;6.094;2023-08-12T14:59:34;23.70;99.90
26212;DHT22;13951;49.516;6.094;2023-08-12T15:02:07;23.80;99.90
26212;DHT22;13951;49.516;6.094;2023-08-12T15:04:41;23.80;99.90
26212;DHT22;13951;49.516;6.094;2023-08-12T15:07:14;23.70;99.90
26212;DHT22;13951;49.516;6.094;2023-08-12T15:09:49;23.70;99.90
26212;DHT22;13951;49.516;6.094;2023-08-12T15:12:24;23.70;99.90
26212;DHT22;13951;49.516;6.094;2023-08-12T15:14:57;23.70;99.90
26212;DHT22;13951;49.516;6.094;2023-08-12T15:17:31;23.70;99.90
26212;DHT22;13951;49.516;6.094;2023-08-12T15:20:05;23.70;99.90
26212;DHT22;13951;49.516;6.094;2023-08-12T15:22:38;23.80;99.90
26212;DHT22;13951;49.516;6.094;2023-08-12T15:25:13;23.80;99.90
26212;DHT22;13951;49.516;6.094;2023-08-12T15:27:46;23.90;99.90
26212;DHT22;13951;49.516;6.094;2023-08-12T15:30:19;23.90;99.90
26212;DHT22;13951;49.516;6.094;2023-08-12T15:32:52;23.90;99.90
26212;DHT22;13951;49.516;6.094;2023-08-12T15:35:26;23.90;99.90
26212;DHT22;13951;49.516;6.094;2023-08-12T15:37:59;23.90;99.90
26212;DHT22;13951;49.516;6.094;2023-08-12T15:40:33;23.90;99.90
26212;DHT22;13951;49.516;6.094;2023-08-12T15:43:06;23.90;99.90
26212;DHT22;13951;49.516;6.094;2023-08-12T15:45:42;23.90;99.90
26212;DHT22;13951;49.516;6.094;2023-08-12T15:48:15;23.90;99.90
26212;DHT22;13951;49.516;6.094;2023-08-12T15:50:49;23.90;99.90
26212;DHT22;13951;49.516;6.094;2023-08-12T15:53:23;23.80;99.90
26212;DHT22;13951;49.516;6.094;2023-08-12T15:55:56;23.70;99.90
26212;DHT22;13951;49.516;6.094;2023-08-12T15:58:29;23.60;99.90
26212;DHT22;13951;49.516;6.094;2023-08-12T16:01:03;23.50;99.90
26212;DHT22;13951;49.516;6.094;2023-08-12T16:03:36;23.50;99.90
26212;DHT22;13951;49.516;6.094;2023-08-12T16:06:12;23.50;99.90
26212;DHT22;13951;49.516;6.094;2023-08-12T16:08:45;23.40;99.90
26212;DHT22;13951;49.516;6.094;2023-08-12T16:11:37;23.40;99.90
26212;DHT22;13951;49.516;6.094;2023-08-12T16:14:10;23.30;99.90
26212;DHT22;13951;49.516;6.094;2023-08-12T16:16:43;23.30;99.90